Time;durP1;ratioP1;P1;durP2;ratioP2;P2;SDS_P1;SDS_P2;PMS_P1;PMS_P2;Temp;Humidity;BMP_temperature;BMP_pressure;BME280_temperature;BME280_humidity;BME280_pressure;Samples;Min_cycle;Max_cycle;Signal;HPM_P1;HPM_P2
2022/12/21 00:01:34;;;;;;;36.37;14.70;;;;;;;18.20;45.87;101143.84;5107961;27;20049;-70
2022/12/21 00:04:02;;;;;;;29.47;14.33;;;;;;;17.86;46.80;101145.00;5123298;27;20393;-70
2022/12/21 00:06:30;;;;;;;33.80;14.83;;;;;;;18.06;46.37;101137.25;5111437;27;20041;-70
2022/12/21 00:08:59;;;;;;;37.93;14.60;;;;;;;17.96;46.09;101141.16;5112827;27;20038;-70
2022/12/21 00:11:25;;;;;;;25.33;13.10;;;;;;;17.97;46.56;101132.31;5131498;27;20027;-70
2022/12/21 00:13:52;;;;;;;24.73;13.13;;;;;;;18.29;46.49;101132.91;5095409;28;20038;-70
2022/12/21 00:16:20;;;;;;;30.40;13.97;;;;;;;18.13;46.12;101137.91;5105257;27;20034;-70
2022/12/21 00:18:46;;;;;;;31.93;14.23;;;;;;;18.11;46.24;101130.03;5110788;27;20422;-70
2022/12/21 00:21:14;;;;;;;31.40;14.47;;;;;;;18.14;45.50;101135.19;5110356;28;20080;-70
2022/12/21 00:23:40;;;;;;;39.37;16.33;;;;;;;17.94;45.57;101137.69;5093134;28;20062;-70
2022/12/21 00:26:07;;;;;;;29.30;14.13;;;;;;;17.87;45.68;101131.72;5101882;27;20080;-70
2022/12/21 00:28:32;;;;;;;32.57;12.40;;;;;;;17.83;46.32;101132.75;5130261;27;20060;-70
2022/12/21 00:31:07;;;;;;;29.90;13.40;;;;;;;17.61;46.31;101122.09;5112195;28;20030;-71
2022/12/21 00:33:32;;;;;;;31.13;13.10;;;;;;;17.50;46.86;101126.88;5112523;28;20034;-70
2022/12/21 00:36:00;;;;;;;37.87;14.43;;;;;;;17.61;45.87;101125.59;5130703;28;20536;-70
2022/12/21 00:38:26;;;;;;;29.20;15.57;;;;;;;17.53;46.69;101119.72;5112107;28;20110;-70
2022/12/21 00:41:03;;;;;;;50.10;21.23;;;;;;;17.60;46.85;101118.59;5129720;27;20368;-70
2022/12/21 00:43:29;;;;;;;39.90;20.30;;;;;;;17.78;46.34;101110.94;5112582;28;20035;-69
2022/12/21 00:45:55;;;;;;;42.27;16.73;;;;;;;17.55;46.11;101114.38;5130031;28;20057;-70
2022/12/21 00:48:20;;;;;;;35.93;13.57;;;;;;;17.55;46.15;101114.38;5131835;28;20058;-70
2022/12/21 00:50:47;;;;;;;31.20;13.13;;;;;;;17.48;46.44;101118.16;5130373;28;20080;-70
2022/12/21 00:53:16;;;;;;;28.03;13.40;;;;;;;17.50;46.23;101113.66;5130652;28;20031;-70
2022/12/21 00:55:52;;;;;;;40.97;13.13;;;;;;;17.53;46.07;101116.19;5111324;28;20512;-70
2022/12/21 00:58:17;;;;;;;29.67;12.13;;;;;;;17.34;46.38;101116.84;5113042;28;20030;-70
2022/12/21 01:00:46;;;;;;;35.53;12.97;;;;;;;17.23;46.73;101124.28;5111715;28;20391;-70
2022/12/21 01:03:11;;;;;;;30.77;12.60;;;;;;;17.19;46.78;101122.66;5112374;28;20043;-70
2022/12/21 01:05:36;;;;;;;30.60;12.53;;;;;;;17.08;47.26;101117.72;5111418;28;20359;-69
2022/12/21 01:08:02;;;;;;;24.33;12.83;;;;;;;17.22;47.18;101122.53;5130551;28;20053;-70
2022/12/21 01:10:27;;;;;;;29.90;13.37;;;;;;;17.08;47.06;101123.00;5130474;27;20031;-70
2022/12/21 01:12:55;;;;;;;30.57;13.00;;;;;;;17.02;47.32;101121.41;5112762;28;20050;-70
2022/12/21 01:15:20;;;;;;;27.37;12.43;;;;;;;17.01;46.62;101109.13;5129521;28;20027;-71
2022/12/21 01:17:46;;;;;;;30.43;13.90;;;;;;;17.28;46.76;101119.69;5111052;28;20037;-70
2022/12/21 01:20:11;;;;;;;26.33;12.40;;;;;;;17.06;47.12;101112.50;5130803;28;20030;-70
2022/12/21 01:22:37;;;;;;;31.90;13.77;;;;;;;17.23;46.78;101124.28;5111969;28;20478;-70
2022/12/21 01:25:02;;;;;;;34.77;12.93;;;;;;;17.15;46.64;101132.44;5112409;28;20027;-70
2022/12/21 01:27:28;;;;;;;32.17;13.70;;;;;;;17.17;47.05;101127.09;5111809;27;20019;-70
2022/12/21 01:29:53;;;;;;;26.00;11.63;;;;;;;17.27;45.79;101133.81;5116940;27;20459;-70
2022/12/21 01:32:18;;;;;;;28.70;11.53;;;;;;;16.77;47.65;101143.28;5116831;27;20027;-70
2022/12/21 01:34:44;;;;;;;38.60;13.83;;;;;;;16.86;47.17;101141.28;5114737;27;20030;-70
2022/12/21 01:37:09;;;;;;;30.13;13.00;;;;;;;16.68;47.78;101138.28;5116486;27;20036;-70
2022/12/21 01:39:35;;;;;;;44.53;15.27;;;;;;;16.89;47.18;101135.91;5115947;27;20066;-70
2022/12/21 01:42:00;;;;;;;29.93;13.60;;;;;;;16.64;47.58;101144.56;5114163;27;20023;-70
2022/12/21 01:44:47;;;;;;;34.37;14.97;;;;;;;16.66;47.76;101150.66;5115615;27;20023;-70
2022/12/21 01:47:17;;;;;;;36.53;15.37;;;;;;;16.76;47.60;101151.22;5114973;27;20039;-70
2022/12/21 01:49:47;;;;;;;31.20;14.97;;;;;;;16.97;47.33;101149.75;5113881;27;20054;-70
2022/12/21 01:52:13;;;;;;;31.63;16.50;;;;;;;16.85;47.64;101155.38;5116201;27;20049;-70
2022/12/21 01:54:53;;;;;;;41.63;16.87;;;;;;;16.72;47.98;101145.19;5115424;27;20031;-70
2022/12/21 01:57:19;;;;;;;46.20;17.27;;;;;;;17.22;46.70;101141.03;5095187;28;20050;-70
2022/12/21 01:59:54;;;;;;;33.60;16.63;;;;;;;17.05;46.72;101142.44;5095526;28;20024;-70
2022/12/21 02:02:22;;;;;;;35.23;15.90;;;;;;;17.03;46.85;101143.41;5131268;27;20051;-70
2022/12/21 02:04:50;;;;;;;35.10;17.03;;;;;;;17.15;46.65;101136.88;5114495;27;20037;-70
2022/12/21 02:07:16;;;;;;;37.17;16.50;;;;;;;16.87;46.81;101132.41;5133660;27;20102;-70
2022/12/21 02:09:42;;;;;;;39.53;16.00;;;;;;;16.50;47.74;101138.81;5113209;27;20114;-70
2022/12/21 02:12:13;;;;;;;41.83;18.10;;;;;;;16.75;47.83;101137.19;5114294;27;20034;-70
2022/12/21 02:14:41;;;;;;;40.73;17.97;;;;;;;16.57;48.29;101135.13;5116083;27;20019;-70
2022/12/21 02:17:11;;;;;;;38.27;17.87;;;;;;;17.04;46.90;101124.88;5133770;27;20027;-70
2022/12/21 02:19:48;;;;;;;41.50;17.67;;;;;;;17.29;46.68;101132.81;5129159;27;20098;-70
2022/12/21 02:22:44;;;;;;;41.27;17.50;;;;;;;16.73;46.95;101131.09;5115639;27;20027;-70
2022/12/21 02:25:39;;;;;;;35.67;17.00;;;;;;;16.81;47.00;101132.63;5133445;27;20027;-70
2022/12/21 02:28:23;;;;;;;36.60;17.30;;;;;;;16.79;47.08;101125.59;5114688;27;20023;-70
2022/12/21 02:30:59;;;;;;;36.33;17.80;;;;;;;16.72;46.79;101124.09;5113316;27;20039;-70
2022/12/21 02:33:33;;;;;;;43.50;17.47;;;;;;;16.99;46.86;101113.56;5113565;27;20390;-71
2022/12/21 02:36:10;;;;;;;42.80;18.90;;;;;;;16.62;47.15;101117.34;5132938;27;20086;-70
2022/12/21 02:39:00;;;;;;;34.93;17.77;;;;;;;16.92;47.06;101119.97;5131887;27;20046;-70
2022/12/21 02:41:37;;;;;;;53.10;19.90;;;;;;;16.88;47.32;101118.31;5113592;27;20046;-70
2022/12/21 02:44:24;;;;;;;56.93;20.23;;;;;;;16.82;47.45;101121.16;5127827;27;20031;-70
2022/12/21 02:47:16;;;;;;;56.13;20.07;;;;;;;16.66;47.68;101118.97;5107848;28;20027;-70
2022/12/21 02:50:07;;;;;;;69.37;19.57;;;;;;;16.69;47.90;101134.75;5092833;27;20039;-70
2022/12/21 02:52:42;;;;;;;57.13;22.03;;;;;;;16.73;48.15;101123.19;5121499;27;20037;-70
2022/12/21 02:55:11;;;;;;;70.90;21.33;;;;;;;16.83;48.06;101117.59;5114453;27;20031;-70
2022/12/21 02:57:40;;;;;;;54.73;20.97;;;;;;;17.03;46.98;101117.84;5112686;27;20083;-70
2022/12/21 03:00:11;;;;;;;157.77;24.40;;;;;;;17.12;47.24;101117.56;5113599;27;20019;-70
2022/12/21 03:05:53;;;;;;;166.40;25.07;;;;;;;16.88;47.25;101118.31;5132457;27;20061;-70
2022/12/21 03:08:38;;;;;;;55.13;21.60;;;;;;;16.94;47.99;101123.44;5113577;27;20058;-70
2022/12/21 03:11:06;;;;;;;157.90;23.77;;;;;;;16.94;47.79;101116.38;5133420;27;20103;-70
2022/12/21 03:13:46;;;;;;;68.23;22.53;;;;;;;17.39;46.59;101109.63;5112303;27;20241;-70
2022/12/21 03:16:19;;;;;;;122.17;22.70;;;;;;;17.46;46.54;101105.84;5113694;27;20035;-70
2022/12/21 03:18:48;;;;;;;73.20;23.17;;;;;;;17.49;46.72;101099.59;5113654;27;20027;-70
2022/12/21 03:21:31;;;;;;;60.80;23.40;;;;;;;17.51;47.24;101107.47;5131084;27;20019;-70
2022/12/21 03:24:02;;;;;;;258.17;26.70;;;;;;;17.08;47.19;101115.94;5115029;27;20031;-70
2022/12/21 03:26:42;;;;;;;82.57;23.13;;;;;;;17.57;45.75;101107.25;5107952;27;20042;-70
2022/12/21 03:29:13;;;;;;;206.17;23.73;;;;;;;16.95;46.86;101104.03;5111459;27;20038;-70
2022/12/21 03:31:42;;;;;;;154.90;23.03;;;;;;;16.89;47.78;101102.44;5132230;27;20394;-70
2022/12/21 03:34:27;;;;;;;275.57;25.67;;;;;;;17.05;47.59;101104.59;5129246;27;20106;-70
2022/12/21 03:37:06;;;;;;;98.80;20.13;;;;;;;17.12;47.45;101101.72;5113445;27;20031;-70
2022/12/21 03:39:37;;;;;;;90.27;18.43;;;;;;;17.17;47.81;101103.31;5111666;27;20023;-70
2022/12/21 03:42:15;;;;;;;411.40;28.17;;;;;;;17.33;46.33;101098.41;5111668;27;20482;-70
2022/12/21 03:44:46;;;;;;;229.13;22.87;;;;;;;17.37;46.62;101087.66;5114178;27;20037;-71
2022/12/21 03:47:19;;;;;;;230.20;23.07;;;;;;;16.93;47.86;101100.59;5113215;27;20027;-70
2022/12/21 03:49:51;;;;;;;251.43;25.40;;;;;;;16.36;48.62;101103.19;5102765;27;20031;-70
2022/12/21 03:52:24;;;;;;;115.03;20.45;;;;;;;16.73;48.54;101099.41;5130210;27;20337;-70
2022/12/21 03:54:57;;;;;;;126.22;20.23;;;;;;;16.90;48.18;101090.13;5110227;27;20486;-70
2022/12/21 03:57:25;;;;;;;238.13;22.73;;;;;;;16.94;48.31;101089.97;5113687;27;20030;-70
2022/12/21 03:59:54;;;;;;;78.77;19.10;;;;;;;17.21;47.83;101082.03;5130638;27;20026;-70
2022/12/21 04:02:47;;;;;;;315.83;25.97;;;;;;;16.77;48.86;101090.50;5129459;27;20057;-70
2022/12/21 04:05:25;;;;;;;288.92;26.27;;;;;;;16.89;47.86;101101.59;5113798;27;20395;-71
2022/12/21 04:07:52;;;;;;;271.67;25.40;;;;;;;16.50;48.76;101107.16;5111043;27;20034;-70
2022/12/21 04:10:20;;;;;;;226.10;22.37;;;;;;;16.34;50.29;101101.50;5131422;27;20479;-70
2022/12/21 04:12:46;;;;;;;210.87;23.33;;;;;;;16.16;50.52;101105.56;5113821;27;20023;-70
2022/12/21 04:15:19;;;;;;;328.63;27.83;;;;;;;16.90;48.55;101092.78;5130079;27;20807;-70
2022/12/21 04:17:47;;;;;;;382.33;28.63;;;;;;;16.62;49.34;101090.94;5111906;27;20490;-71
2022/12/21 04:20:17;;;;;;;157.60;21.90;;;;;;;16.59;50.06;101086.63;5112540;27;20378;-70
2022/12/21 04:28:26;;;;;;;71.27;19.33;;;;;;;16.71;49.21;101069.56;5132419;27;20050;-70
2022/12/21 04:30:51;;;;;;;157.20;21.50;;;;;;;15.67;51.74;101074.34;5109256;28;20035;-70
2022/12/21 04:33:19;;;;;;;123.20;22.73;;;;;;;16.05;50.57;101080.34;5112431;28;20095;-70
2022/12/21 04:38:32;;;;;;;124.33;21.50;;;;;;;16.64;49.82;101083.88;5129999;27;20092;-70
2022/12/21 04:40:58;;;;;;;119.63;20.23;;;;;;;16.65;49.60;101090.88;5108961;28;20521;-70
2022/12/21 04:43:25;;;;;;;147.53;21.73;;;;;;;16.21;50.49;101093.06;5130021;28;20450;-70
2022/12/21 04:46:06;;;;;;;155.40;22.30;;;;;;;16.14;50.94;101091.53;5092309;28;20027;-70
2022/12/21 04:48:32;;;;;;;200.07;23.00;;;;;;;16.81;49.27;101091.25;5103730;28;20486;-70
2022/12/21 04:51:06;;;;;;;122.40;20.63;;;;;;;16.39;50.07;101100.44;5111795;28;20042;-70
2022/12/21 04:53:32;;;;;;;114.30;20.83;;;;;;;16.36;50.56;101099.66;5130880;28;20019;-71
2022/12/21 04:55:58;;;;;;;94.60;20.33;;;;;;;16.03;51.39;101087.44;5113483;28;20386;-70
2022/12/21 04:58:23;;;;;;;181.70;24.43;;;;;;;16.24;51.26;101085.09;5127847;27;20048;-70
2022/12/21 05:00:49;;;;;;;114.20;22.80;;;;;;;15.90;51.55;101092.19;5110854;27;20035;-70
2022/12/21 05:03:14;;;;;;;135.43;23.67;;;;;;;15.78;52.56;101089.84;5116520;27;20047;-70
2022/12/21 05:05:39;;;;;;;117.57;24.90;;;;;;;16.27;51.24;101088.47;5116047;27;20043;-71
2022/12/21 05:08:05;;;;;;;127.83;23.90;;;;;;;15.96;51.22;101085.88;5117260;27;20030;-70
2022/12/21 05:10:30;;;;;;;149.03;24.17;;;;;;;16.33;50.68;101084.78;5116929;27;20026;-70
2022/12/21 05:12:56;;;;;;;142.00;26.37;;;;;;;16.82;49.49;101076.28;5113145;27;20039;-70
2022/12/21 05:15:21;;;;;;;193.77;27.37;;;;;;;16.50;49.90;101075.50;5116468;27;20024;-70
2022/12/21 05:17:46;;;;;;;256.63;28.40;;;;;;;16.44;50.33;101077.44;5116989;27;20035;-70
2022/12/21 05:20:12;;;;;;;227.70;29.43;;;;;;;16.09;50.75;101076.72;5131645;27;20027;-70
2022/12/21 05:22:37;;;;;;;129.53;23.90;;;;;;;15.92;51.72;101084.22;5116714;27;20034;-70
2022/12/21 05:25:03;;;;;;;170.33;28.23;;;;;;;16.44;50.60;101088.00;5117103;27;20486;-70
2022/12/21 05:27:28;;;;;;;94.17;24.33;;;;;;;16.71;49.76;101077.47;5113588;27;20030;-70
2022/12/21 05:29:54;;;;;;;130.50;24.83;;;;;;;16.06;50.83;101071.53;5116391;27;20026;-70
2022/12/21 05:32:19;;;;;;;153.07;27.20;;;;;;;15.92;51.57;101081.59;5114256;27;20019;-70
2022/12/21 05:34:44;;;;;;;225.80;28.60;;;;;;;15.93;51.19;101088.59;5133290;27;20031;-70
2022/12/21 05:37:10;;;;;;;160.70;26.37;;;;;;;15.93;51.95;101080.69;5134423;27;20031;-71
2022/12/21 05:39:36;;;;;;;127.90;26.90;;;;;;;14.93;55.02;101086.78;5115709;27;20482;-70
2022/12/21 05:42:02;;;;;;;190.67;28.53;;;;;;;15.18;55.88;101080.91;5132916;27;20062;-70
2022/12/21 05:44:28;;;;;;;207.30;26.50;;;;;;;15.61;54.14;101087.69;5115933;27;20035;-70
2022/12/21 05:46:53;;;;;;;144.47;25.43;;;;;;;16.10;52.03;101074.91;5114433;27;20027;-70
2022/12/21 05:49:19;;;;;;;178.80;27.10;;;;;;;15.53;54.44;101076.50;5133992;27;20035;-70
2022/12/21 05:51:47;;;;;;;227.77;28.90;;;;;;;16.22;52.37;101084.25;5133496;27;20101;-70
2022/12/21 05:54:14;;;;;;;319.13;32.17;;;;;;;16.09;52.19;101076.72;5134609;27;20099;-70
2022/12/21 05:56:39;;;;;;;168.13;28.13;;;;;;;16.12;52.22;101070.47;5114605;27;20038;-70
2022/12/21 05:59:04;;;;;;;132.33;25.87;;;;;;;15.55;53.20;101074.66;5133860;27;20106;-70
2022/12/21 06:01:30;;;;;;;196.67;28.30;;;;;;;16.46;51.59;101069.47;5132037;27;20098;-70
2022/12/21 06:03:55;;;;;;;162.83;25.90;;;;;;;16.05;51.83;101069.78;5115013;27;20062;-70
2022/12/21 06:06:21;;;;;;;159.63;27.13;;;;;;;16.04;52.39;101070.69;5114581;27;20031;-70
2022/12/21 06:08:46;;;;;;;151.67;26.07;;;;;;;15.84;52.49;101073.91;5114637;27;20088;-70
2022/12/21 06:11:15;;;;;;;220.27;29.23;;;;;;;16.28;52.40;101065.63;5134619;27;20046;-70
2022/12/21 06:13:41;;;;;;;197.97;29.53;;;;;;;15.89;52.70;101066.72;5113724;27;20117;-70
2022/12/21 06:16:16;;;;;;;177.57;27.27;;;;;;;16.29;51.79;101062.06;5132398;27;20116;-70
2022/12/21 06:18:41;;;;;;;273.87;31.47;;;;;;;16.47;50.83;101062.41;5133321;27;20031;-70
2022/12/21 06:21:09;;;;;;;276.77;30.80;;;;;;;16.41;51.13;101072.22;5133963;27;20505;-70
2022/12/21 06:23:35;;;;;;;139.80;27.50;;;;;;;16.19;51.86;101068.53;5133178;27;20038;-70
2022/12/21 06:26:02;;;;;;;207.90;28.63;;;;;;;16.24;51.25;101064.00;5115815;27;20023;-70
2022/12/21 06:28:28;;;;;;;170.03;27.30;;;;;;;16.09;51.77;101063.53;5114591;27;20064;-70
2022/12/21 06:30:54;;;;;;;223.60;29.10;;;;;;;16.15;50.75;101059.00;5112350;27;20027;-70
2022/12/21 06:33:22;;;;;;;216.87;28.83;;;;;;;15.62;52.72;101055.19;5115270;27;20071;-70
2022/12/21 06:35:52;;;;;;;199.50;29.50;;;;;;;15.80;53.55;101059.09;5115479;27;20039;-70
2022/12/21 06:38:17;;;;;;;316.80;32.70;;;;;;;16.01;51.51;101057.63;5113692;27;20046;-70
2022/12/21 06:40:43;;;;;;;136.30;25.90;;;;;;;16.34;51.70;101048.75;5113958;27;20030;-70
2022/12/21 06:43:08;;;;;;;110.40;28.50;;;;;;;15.54;52.61;101065.06;5129158;27;20038;-70
2022/12/21 06:45:34;;;;;;;139.23;26.83;;;;;;;16.31;50.84;101070.81;5112705;27;20037;-70
2022/12/21 06:47:59;;;;;;;124.37;27.60;;;;;;;15.25;53.37;101069.31;5132720;27;20110;-70
2022/12/21 06:50:25;;;;;;;130.23;26.20;;;;;;;14.73;56.03;101080.22;5115166;27;20034;-70
2022/12/21 06:52:50;;;;;;;126.13;27.27;;;;;;;15.32;53.69;101072.63;5109932;27;20031;-70
2022/12/21 06:55:16;;;;;;;143.13;26.93;;;;;;;15.10;53.65;101074.06;5114514;27;20594;-70
2022/12/21 06:57:42;;;;;;;166.40;30.90;;;;;;;15.25;55.25;101087.75;5112252;27;20030;-70
2022/12/21 07:00:09;;;;;;;108.43;27.23;;;;;;;15.85;53.37;101087.94;5115132;27;20538;-70
2022/12/21 07:02:37;;;;;;;112.53;28.20;;;;;;;15.75;52.44;101093.44;5110214;28;20383;-70
2022/12/21 07:05:03;;;;;;;72.87;26.80;;;;;;;14.65;55.04;101113.72;5110494;28;20437;-70
2022/12/21 07:07:28;;;;;;;79.43;27.83;;;;;;;15.40;54.87;101103.16;5108370;28;20073;-70
2022/12/21 07:09:53;;;;;;;67.87;28.27;;;;;;;15.14;55.74;101117.00;5110808;28;20034;-70
2022/12/21 07:12:19;;;;;;;65.30;27.57;;;;;;;15.28;55.43;101108.75;5109834;28;20024;-70
2022/12/21 07:14:44;;;;;;;62.73;27.13;;;;;;;15.24;53.73;101101.81;5112662;28;20467;-70
2022/12/21 07:17:10;;;;;;;70.00;28.77;;;;;;;15.61;53.24;101100.88;5109403;28;20035;-70
2022/12/21 07:19:35;;;;;;;71.03;29.37;;;;;;;15.52;53.10;101111.66;5110926;28;20107;-70
2022/12/21 07:22:01;;;;;;;77.17;30.00;;;;;;;15.67;52.67;101100.69;5111301;28;20421;-70
2022/12/21 07:24:26;;;;;;;67.33;28.60;;;;;;;15.73;52.49;101100.53;5109818;28;20042;-70
2022/12/21 07:26:52;;;;;;;66.20;28.73;;;;;;;15.42;54.51;101101.34;5110616;28;20027;-70
2022/12/21 07:29:17;;;;;;;58.83;28.33;;;;;;;15.84;52.61;101102.91;5110975;28;20053;-70
2022/12/21 07:31:42;;;;;;;68.53;28.90;;;;;;;16.30;50.99;101095.44;5109739;28;20450;-70
2022/12/21 07:34:08;;;;;;;60.90;28.17;;;;;;;16.69;49.89;101089.00;5102849;28;20028;-70
2022/12/21 07:36:33;;;;;;;77.10;28.10;;;;;;;16.90;49.24;101084.84;5109713;28;20035;-70
2022/12/21 07:38:58;;;;;;;67.53;29.50;;;;;;;16.67;49.17;101083.75;5107376;28;20034;-70
2022/12/21 07:41:24;;;;;;;60.63;28.33;;;;;;;16.16;50.40;101093.22;5110101;28;20024;-70
2022/12/21 07:43:49;;;;;;;59.30;27.33;;;;;;;16.54;49.57;101087.69;5109350;28;20084;-70
2022/12/21 07:46:18;;;;;;;69.87;27.73;;;;;;;16.92;48.27;101093.56;5109540;28;20020;-70
2022/12/21 07:48:44;;;;;;;54.30;26.47;;;;;;;16.65;48.01;101088.25;5110264;28;20031;-70
2022/12/21 07:51:10;;;;;;;62.60;26.70;;;;;;;16.71;48.38;101081.91;5109450;28;20435;-70
2022/12/21 07:53:36;;;;;;;50.10;25.10;;;;;;;16.15;49.26;101091.47;5106858;28;20023;-70
2022/12/21 07:56:04;;;;;;;58.57;25.33;;;;;;;16.25;49.77;101094.72;5105097;28;20386;-70
2022/12/21 07:58:30;;;;;;;54.50;24.40;;;;;;;15.72;50.77;101096.16;5105354;28;20106;-70
2022/12/21 08:01:04;;;;;;;54.60;25.57;;;;;;;15.89;50.02;101101.00;5110350;28;20110;-70
2022/12/21 08:03:29;;;;;;;52.43;24.90;;;;;;;16.07;49.80;101098.75;5125023;27;20104;-70
2022/12/21 08:05:54;;;;;;;53.33;26.23;;;;;;;16.34;49.25;101099.72;5112810;27;20035;-70
2022/12/21 08:08:20;;;;;;;56.23;26.90;;;;;;;16.15;49.19;101101.19;5112409;27;20123;-70
2022/12/21 08:10:45;;;;;;;55.23;25.60;;;;;;;16.55;48.19;101099.97;5125335;27;20031;-70
2022/12/21 08:13:11;;;;;;;55.83;25.27;;;;;;;15.78;49.72;101098.66;5128803;27;20103;-70
2022/12/21 08:15:36;;;;;;;49.57;24.33;;;;;;;16.47;48.42;101102.00;5110494;27;20058;-71
2022/12/21 08:18:02;;;;;;;52.13;24.40;;;;;;;15.56;50.78;101108.88;5112000;27;20027;-70
2022/12/21 08:20:27;;;;;;;53.73;25.43;;;;;;;16.20;49.54;101109.81;5112999;27;20126;-70
2022/12/21 08:22:53;;;;;;;56.67;25.63;;;;;;;16.86;47.83;101105.16;5129835;27;20115;-70
2022/12/21 08:25:18;;;;;;;51.33;25.93;;;;;;;16.79;48.10;101103.63;5132141;27;20551;-70
2022/12/21 08:27:43;;;;;;;56.00;24.27;;;;;;;16.68;48.40;101111.91;5112279;27;20475;-70
2022/12/21 08:30:09;;;;;;;57.40;23.07;;;;;;;16.49;48.71;101110.72;5129498;27;20027;-70
2022/12/21 08:32:34;;;;;;;62.07;23.60;;;;;;;16.53;48.63;101107.09;5131409;28;20031;-70
2022/12/21 08:35:00;;;;;;;48.97;21.97;;;;;;;16.67;49.02;101104.03;5131980;27;20030;-70
2022/12/21 08:37:25;;;;;;;45.87;22.80;;;;;;;16.78;48.20;101102.75;5110944;28;20474;-70
2022/12/21 08:39:50;;;;;;;56.40;23.00;;;;;;;16.79;48.98;101101.84;5131794;28;20072;-70
2022/12/21 08:42:16;;;;;;;51.30;22.60;;;;;;;17.13;47.34;101108.72;5113479;28;20030;-70
2022/12/21 08:44:41;;;;;;;50.07;21.60;;;;;;;16.53;48.70;101115.00;5111951;28;20027;-70
2022/12/21 08:47:07;;;;;;;43.60;21.70;;;;;;;16.19;50.48;101113.38;5111540;28;20023;-70
2022/12/21 08:49:33;;;;;;;55.67;22.20;;;;;;;16.55;48.76;101114.03;5131698;28;20055;-70
2022/12/21 08:51:58;;;;;;;32.67;20.20;;;;;;;15.49;52.84;101104.69;5112894;28;20536;-70
2022/12/21 08:54:25;;;;;;;47.57;22.13;;;;;;;15.38;54.52;101110.22;5110930;28;20071;-70
2022/12/21 08:56:50;;;;;;;41.87;20.67;;;;;;;15.87;52.82;101107.25;5111909;28;20024;-70
2022/12/21 08:59:15;;;;;;;42.00;20.53;;;;;;;15.86;52.32;101105.50;5112571;28;20011;-70
2022/12/21 09:01:41;;;;;;;47.00;20.37;;;;;;;15.73;52.55;101104.91;5113462;28;20546;-70
2022/12/21 09:04:06;;;;;;;37.73;20.87;;;;;;;16.52;50.65;101100.09;5109825;28;20035;-70
2022/12/21 09:06:32;;;;;;;39.90;20.80;;;;;;;16.71;50.67;101085.41;5127133;28;20027;-70
2022/12/21 09:08:57;;;;;;;39.97;20.93;;;;;;;15.85;52.14;101095.84;5131739;28;20071;-70
2022/12/21 09:11:23;;;;;;;44.40;20.33;;;;;;;16.50;51.57;101091.34;5112693;28;20428;-70
2022/12/21 09:13:49;;;;;;;50.10;20.33;;;;;;;15.96;51.86;101100.84;5109945;28;20080;-70
2022/12/21 09:16:20;;;;;;;44.27;19.57;;;;;;;16.03;51.79;101108.53;5106019;28;20031;-70
2022/12/21 09:18:47;;;;;;;43.23;20.43;;;;;;;15.24;55.53;101113.22;5107325;28;20022;-70
2022/12/21 09:21:15;;;;;;;44.77;20.57;;;;;;;15.26;54.95;101106.16;5112734;28;20038;-71
2022/12/21 09:23:40;;;;;;;34.43;18.13;;;;;;;15.86;53.07;101105.50;5094714;27;20028;-70
2022/12/21 09:26:07;;;;;;;41.33;18.40;;;;;;;15.87;51.90;101099.34;5103581;28;20693;-70
2022/12/21 09:28:33;;;;;;;34.73;17.67;;;;;;;15.53;53.71;101102.84;5109715;28;20449;-70
2022/12/21 09:31:17;;;;;;;33.73;18.23;;;;;;;16.54;50.74;101092.97;5112935;28;20024;-70
2022/12/21 09:33:44;;;;;;;43.07;18.27;;;;;;;15.25;55.06;101095.66;5106471;28;20083;-70
2022/12/21 09:36:13;;;;;;;41.07;17.53;;;;;;;15.96;53.22;101090.28;5105937;28;20022;-70
2022/12/21 09:38:39;;;;;;;33.73;17.57;;;;;;;15.61;53.49;101095.59;5102572;28;20034;-70
2022/12/21 09:41:05;;;;;;;34.50;18.27;;;;;;;14.99;54.62;101101.53;5110230;28;20034;-70
2022/12/21 09:43:50;;;;;;;37.43;18.03;;;;;;;14.53;57.20;101092.94;5106603;28;20285;-70
2022/12/21 09:46:16;;;;;;;37.47;17.73;;;;;;;15.22;54.57;101083.44;5127101;28;20023;-70
2022/12/21 09:48:44;;;;;;;41.33;18.17;;;;;;;14.57;57.55;101090.19;5112334;27;20030;-70
2022/12/21 09:51:25;;;;;;;44.23;19.53;;;;;;;15.49;54.30;101085.38;5133813;27;20513;-70
2022/12/21 09:54:04;;;;;;;41.03;17.77;;;;;;;15.09;55.01;101088.13;5114628;27;20031;-70
2022/12/21 09:56:30;;;;;;;48.20;19.20;;;;;;;15.70;52.31;101089.19;5115454;27;20034;-70
2022/12/21 09:59:04;;;;;;;40.30;18.50;;;;;;;15.03;55.00;101093.56;5114977;27;20106;-71
2022/12/21 10:01:30;;;;;;;37.23;18.23;;;;;;;15.27;54.22;101086.78;5115497;27;20079;-70
2022/12/21 10:04:26;;;;;;;37.40;17.23;;;;;;;15.71;53.04;101086.53;5133123;27;20063;-71
2022/12/21 10:07:11;;;;;;;43.57;19.50;;;;;;;15.02;56.21;101091.81;5115997;27;20486;-70
2022/12/21 10:09:48;;;;;;;47.63;18.50;;;;;;;14.40;58.38;101100.25;5114485;27;20106;-70
2022/12/21 10:12:19;;;;;;;43.27;20.40;;;;;;;14.01;59.37;101101.03;5115011;27;20035;-71
2022/12/21 10:14:58;;;;;;;47.90;21.20;;;;;;;14.54;59.55;101108.66;5133228;27;20065;-71
2022/12/21 10:17:23;;;;;;;51.90;23.43;;;;;;;14.35;60.37;101105.56;5115972;27;20028;-71
2022/12/21 10:20:07;;;;;;;49.33;22.30;;;;;;;13.56;64.46;101119.41;5133112;27;20596;-70
2022/12/21 10:22:37;;;;;;;54.20;23.97;;;;;;;14.66;61.24;101126.00;5131592;27;20033;-70
2022/12/21 10:25:17;;;;;;;50.00;23.30;;;;;;;13.44;65.57;101115.22;5117344;27;20031;-71
2022/12/21 10:27:48;;;;;;;51.23;23.40;;;;;;;13.17;68.11;101112.13;5134137;27;20027;-70
2022/12/21 10:30:15;;;;;;;55.57;24.97;;;;;;;13.96;67.53;101108.13;5114863;27;20023;-70
2022/12/21 10:32:43;;;;;;;55.80;23.83;;;;;;;14.17;62.95;101114.72;5134232;27;20027;-70
2022/12/21 10:35:16;;;;;;;56.37;24.60;;;;;;;13.11;65.27;101111.38;5133044;27;20035;-71
2022/12/21 10:37:42;;;;;;;56.70;24.93;;;;;;;14.57;62.04;101110.38;5114723;27;20505;-71
2022/12/21 10:40:10;;;;;;;52.90;24.40;;;;;;;15.07;59.79;101111.00;5114694;27;20023;-70
2022/12/21 10:42:39;;;;;;;63.00;26.10;;;;;;;15.25;57.00;101116.72;5115380;27;20031;-71
2022/12/21 10:45:05;;;;;;;65.60;26.10;;;;;;;15.39;56.01;101111.97;5133056;27;20527;-70
2022/12/21 10:47:30;;;;;;;59.17;25.37;;;;;;;14.19;60.60;101117.31;5115212;27;20027;-70
2022/12/21 10:50:06;;;;;;;64.40;24.73;;;;;;;14.69;59.36;101110.13;5113586;27;20497;-70
2022/12/21 10:52:34;;;;;;;65.77;24.37;;;;;;;14.89;58.02;101101.78;5133516;27;20031;-71
2022/12/21 10:55:00;;;;;;;55.17;23.60;;;;;;;13.81;62.78;101118.97;5132712;27;20062;-70
2022/12/21 10:57:28;;;;;;;65.77;25.33;;;;;;;14.30;62.39;101117.97;5132751;27;20486;-70
2022/12/21 10:59:54;;;;;;;56.93;24.17;;;;;;;14.51;59.35;101114.00;5131984;27;20375;-70
2022/12/21 11:02:34;;;;;;;70.90;25.80;;;;;;;13.85;62.25;101110.13;5114690;27;20039;-70
2022/12/21 11:04:59;;;;;;;59.53;24.80;;;;;;;14.74;59.62;101103.00;5111690;27;20038;-70
2022/12/21 11:07:28;;;;;;;66.60;26.80;;;;;;;14.65;59.81;101108.47;5131710;27;20538;-70
2022/12/21 11:09:59;;;;;;;53.40;22.33;;;;;;;15.16;58.13;101111.69;5113385;27;20054;-70
2022/12/21 11:12:26;;;;;;;62.93;24.77;;;;;;;14.01;61.84;101122.06;5112126;28;20092;-71
2022/12/21 11:14:53;;;;;;;56.97;24.40;;;;;;;14.49;60.65;101122.81;5103643;27;20037;-70
2022/12/21 11:17:25;;;;;;;59.60;24.20;;;;;;;15.54;56.88;101104.56;5114829;27;20115;-70
2022/12/21 11:19:59;;;;;;;64.57;25.30;;;;;;;14.31;61.48;101114.44;5112992;27;20491;-70
2022/12/21 11:22:28;;;;;;;51.50;23.07;;;;;;;14.44;61.71;101107.16;5114020;27;20080;-70
2022/12/21 11:24:56;;;;;;;51.27;23.23;;;;;;;14.53;61.72;101106.06;5112571;27;20011;-70
2022/12/21 11:27:31;;;;;;;64.97;23.10;;;;;;;13.86;62.34;101117.97;5131886;27;20442;-71